sensor_id;sensor_type;location;lat;lon;timestamp;pressure;altitude;pressure_sealevel;temperature;humidity
10510;BME280;5303;53.266;10.410;2023-03-21T00:01:03;101351.91;;;9.48;100.00
10510;BME280;5303;53.266;10.410;2023-03-21T00:03:30;101352.75;;;9.49;100.00
10510;BME280;5303;53.266;10.410;2023-03-21T00:05:56;101356.63;;;9.46;100.00
10510;BME280;5303;53.266;10.410;2023-03-21T00:08:23;101353.91;;;9.46;100.00
10510;BME280;5303;53.266;10.410;2023-03-21T00:11:01;101349.78;;;9.42;100.00
10510;BME280;5303;53.266;10.410;2023-03-21T00:13:27;101350.75;;;9.51;100.00
10510;BME280;5303;53.266;10.410;2023-03-21T00:15:56;101345.91;;;9.45;100.00
10510;BME280;5303;53.266;10.410;2023-03-21T00:18:22;101353.16;;;9.54;100.00
10510;BME280;5303;53.266;10.410;2023-03-21T00:23:23;101351.06;;;9.48;100.00
10510;BME280;5303;53.266;10.410;2023-03-21T00:25:48;101348.03;;;9.51;100.00
10510;BME280;5303;53.266;10.410;2023-03-21T00:28:14;101346.75;;;9.45;100.00
10510;BME280;5303;53.266;10.410;2023-03-21T00:30:39;101348.16;;;9.49;100.00
10510;BME280;5303;53.266;10.410;2023-03-21T00:33:04;101340.16;;;9.48;100.00
10510;BME280;5303;53.266;10.410;2023-03-21T00:35:30;101340.31;;;9.46;100.00
10510;BME280;5303;53.266;10.410;2023-03-21T00:37:55;101334.56;;;9.49;100.00
10510;BME280;5303;53.266;10.410;2023-03-21T00:40:20;101332.00;;;9.48;100.00
10510;BME280;5303;53.266;10.410;2023-03-21T00:42:46;101324.00;;;9.46;100.00
10510;BME280;5303;53.266;10.410;2023-03-21T00:45:11;101329.38;;;9.56;100.00
10510;BME280;5303;53.266;10.410;2023-03-21T00:47:36;101329.53;;;9.54;100.00
10510;BME280;5303;53.266;10.410;2023-03-21T00:50:02;101321.59;;;9.61;100.00
10510;BME280;5303;53.266;10.410;2023-03-21T00:52:28;101327.34;;;9.58;100.00
10510;BME280;5303;53.266;10.410;2023-03-21T00:54:54;101320.22;;;9.57;100.00
10510;BME280;5303;53.266;10.410;2023-03-21T00:57:20;101319.91;;;9.60;100.00
10510;BME280;5303;53.266;10.410;2023-03-21T00:59:45;101314.78;;;9.57;100.00
10510;BME280;5303;53.266;10.410;2023-03-21T01:02:11;101317.25;;;9.50;100.00
10510;BME280;5303;53.266;10.410;2023-03-21T01:04:39;101313.91;;;9.56;100.00
10510;BME280;5303;53.266;10.410;2023-03-21T01:07:04;101317.88;;;9.62;100.00
10510;BME280;5303;53.266;10.410;2023-03-21T01:09:29;101307.28;;;9.59;100.00
10510;BME280;5303;53.266;10.410;2023-03-21T01:11:55;101297.84;;;9.63;100.00
10510;BME280;5303;53.266;10.410;2023-03-21T01:14:21;101309.88;;;9.61;100.00
10510;BME280;5303;53.266;10.410;2023-03-21T01:16:48;101307.00;;;9.62;100.00
10510;BME280;5303;53.266;10.410;2023-03-21T01:19:16;101299.53;;;9.64;100.00
10510;BME280;5303;53.266;10.410;2023-03-21T01:21:42;101307.41;;;9.67;100.00
10510;BME280;5303;53.266;10.410;2023-03-21T01:24:08;101302.41;;;9.63;100.00
10510;BME280;5303;53.266;10.410;2023-03-21T01:26:33;101302.88;;;9.58;100.00
10510;BME280;5303;53.266;10.410;2023-03-21T01:29:01;101301.84;;;9.59;100.00
10510;BME280;5303;53.266;10.410;2023-03-21T01:31:27;101302.72;;;9.60;100.00
10510;BME280;5303;53.266;10.410;2023-03-21T01:33:52;101303.28;;;9.63;100.00
10510;BME280;5303;53.266;10.410;2023-03-21T01:36:20;101303.28;;;9.63;100.00
10510;BME280;5303;53.266;10.410;2023-03-21T01:38:46;101299.38;;;9.66;100.00
10510;BME280;5303;53.266;10.410;2023-03-21T01:41:36;101301.72;;;9.61;100.00
10510;BME280;5303;53.266;10.410;2023-03-21T01:44:02;101297.84;;;9.63;100.00
10510;BME280;5303;53.266;10.410;2023-03-21T01:46:41;101299.53;;;9.64;100.00
10510;BME280;5303;53.266;10.410;2023-03-21T01:49:16;101299.22;;;9.67;100.00
10510;BME280;5303;53.266;10.410;2023-03-21T01:51:48;101301.25;;;9.65;100.00
10510;BME280;5303;53.266;10.410;2023-03-21T01:54:20;101289.69;;;9.63;100.00
10510;BME280;5303;53.266;10.410;2023-03-21T01:56:49;101298.22;;;9.68;100.00
10510;BME280;5303;53.266;10.410;2023-03-21T01:59:20;101292.94;;;9.67;100.00
10510;BME280;5303;53.266;10.410;2023-03-21T02:01:49;101292.94;;;9.67;100.00
10510;BME280;5303;53.266;10.410;2023-03-21T02:04:16;101297.84;;;9.63;100.00
10510;BME280;5303;53.266;10.410;2023-03-21T02:06:59;101282.06;;;9.67;100.00
10510;BME280;5303;53.266;10.410;2023-03-21T02:09:31;101290.66;;;9.62;100.00
10510;BME280;5303;53.266;10.410;2023-03-21T02:11:58;101291.38;;;9.64;100.00
10510;BME280;5303;53.266;10.410;2023-03-21T02:14:24;101287.63;;;9.65;100.00
10510;BME280;5303;53.266;10.410;2023-03-21T02:22:38;101279.13;;;9.60;100.00
10510;BME280;5303;53.266;10.410;2023-03-21T02:25:34;101274.84;;;9.57;100.00
10510;BME280;5303;53.266;10.410;2023-03-21T02:28:21;101269.38;;;9.57;100.00
10510;BME280;5303;53.266;10.410;2023-03-21T02:31:04;101271.88;;;9.51;100.00
10510;BME280;5303;53.266;10.410;2023-03-21T02:36:16;101263.16;;;9.65;100.00
10510;BME280;5303;53.266;10.410;2023-03-21T02:38:53;101262.78;;;9.60;100.00
10510;BME280;5303;53.266;10.410;2023-03-21T02:41:32;101258.88;;;9.63;100.00
10510;BME280;5303;53.266;10.410;2023-03-21T02:44:07;101266.50;;;9.59;100.00
10510;BME280;5303;53.266;10.410;2023-03-21T02:46:49;101263.47;;;9.62;100.00
10510;BME280;5303;53.266;10.410;2023-03-21T02:49:22;101265.75;;;9.67;100.00
10510;BME280;5303;53.266;10.410;2023-03-21T02:51:49;101263.47;;;9.62;100.00
10510;BME280;5303;53.266;10.410;2023-03-21T02:54:21;101270.94;;;9.60;100.00
10510;BME280;5303;53.266;10.410;2023-03-21T02:56:49;101270.34;;;9.66;100.00
10510;BME280;5303;53.266;10.410;2023-03-21T02:59:16;101267.75;;;9.65;100.00
10510;BME280;5303;53.266;10.410;2023-03-21T03:01:43;101266.28;;;9.70;100.00
10510;BME280;5303;53.266;10.410;2023-03-21T03:04:23;101260.44;;;9.65;100.00
10510;BME280;5303;53.266;10.410;2023-03-21T03:15:23;101253.13;;;9.66;100.00
10510;BME280;5303;53.266;10.410;2023-03-21T03:21:08;101251.59;;;9.63;100.00
10510;BME280;5303;53.266;10.410;2023-03-21T03:23:49;101251.75;;;9.62;100.00
10510;BME280;5303;53.266;10.410;2023-03-21T03:26:22;101243.13;;;9.66;100.00
10510;BME280;5303;53.266;10.410;2023-03-21T03:28:53;101240.06;;;9.69;100.00
10510;BME280;5303;53.266;10.410;2023-03-21T03:31:24;101245.69;;;9.68;100.00
10510;BME280;5303;53.266;10.410;2023-03-21T03:33:56;101250.41;;;9.66;100.00
10510;BME280;5303;53.266;10.410;2023-03-21T03:36:29;101242.47;;;9.72;100.00
10510;BME280;5303;53.266;10.410;2023-03-21T03:39:03;101250.28;;;9.67;100.00
10510;BME280;5303;53.266;10.410;2023-03-21T03:41:30;101248.56;;;9.66;100.00
10510;BME280;5303;53.266;10.410;2023-03-21T03:44:01;101248.56;;;9.66;100.00
10510;BME280;5303;53.266;10.410;2023-03-21T03:46:30;101235.66;;;9.68;100.00
10510;BME280;5303;53.266;10.410;2023-03-21T03:49:01;101242.56;;;9.63;100.00
10510;BME280;5303;53.266;10.410;2023-03-21T03:51:35;101229.84;;;9.63;100.00
10510;BME280;5303;53.266;10.410;2023-03-21T03:54:12;101228.13;;;9.62;100.00
10510;BME280;5303;53.266;10.410;2023-03-21T03:56:39;101235.97;;;9.65;100.00
10510;BME280;5303;53.266;10.410;2023-03-21T03:59:04;101237.19;;;9.71;100.00
10510;BME280;5303;53.266;10.410;2023-03-21T04:01:32;101236.66;;;9.67;100.00
10510;BME280;5303;53.266;10.410;2023-03-21T04:03:58;101232.63;;;9.71;100.00
10510;BME280;5303;53.266;10.410;2023-03-21T04:06:25;101238.00;;;9.63;100.00
10510;BME280;5303;53.266;10.410;2023-03-21T04:08:52;101234.09;;;9.66;100.00
10510;BME280;5303;53.266;10.410;2023-03-21T04:11:18;101230.91;;;9.70;100.00
10510;BME280;5303;53.266;10.410;2023-03-21T04:13:43;101227.34;;;9.70;100.00
10510;BME280;5303;53.266;10.410;2023-03-21T04:16:09;101223.28;;;9.74;100.00
10510;BME280;5303;53.266;10.410;2023-03-21T04:18:35;101231.06;;;9.69;100.00
10510;BME280;5303;53.266;10.410;2023-03-21T04:21:07;101223.28;;;9.74;100.00
10510;BME280;5303;53.266;10.410;2023-03-21T04:23:33;101231.59;;;9.72;100.00
10510;BME280;5303;53.266;10.410;2023-03-21T04:25:59;101229.59;;;9.74;100.00
10510;BME280;5303;53.266;10.410;2023-03-21T04:28:25;101234.63;;;9.69;100.00
10510;BME280;5303;53.266;10.410;2023-03-21T04:30:50;101231.28;;;9.75;100.00
10510;BME280;5303;53.266;10.410;2023-03-21T04:33:16;101229.25;;;9.77;100.00
10510;BME280;5303;53.266;10.410;2023-03-21T04:35:41;101225.53;;;9.78;100.00
10510;BME280;5303;53.266;10.410;2023-03-21T04:38:09;101222.47;;;9.82;100.00
10510;BME280;5303;53.266;10.410;2023-03-21T04:40:35;101227.41;;;9.78;100.00
10510;BME280;5303;53.266;10.410;2023-03-21T04:43:00;101225.84;;;9.75;100.00
10510;BME280;5303;53.266;10.410;2023-03-21T04:45:25;101222.28;;;9.75;100.00
10510;BME280;5303;53.266;10.410;2023-03-21T04:47:51;101223.81;;;9.77;100.00
10510;BME280;5303;53.266;10.410;2023-03-21T04:50:16;101224.69;;;9.78;100.00
10510;BME280;5303;53.266;10.410;2023-03-21T04:52:41;101222.47;;;9.82;100.00
10510;BME280;5303;53.266;10.410;2023-03-21T04:55:07;101222.13;;;9.76;100.00
10510;BME280;5303;53.266;10.410;2023-03-21T04:57:34;101230.34;;;9.85;100.00
10510;BME280;5303;53.266;10.410;2023-03-21T05:00:00;101233.22;;;9.83;100.00
10510;BME280;5303;53.266;10.410;2023-03-21T05:02:25;101230.34;;;9.85;100.00
10510;BME280;5303;53.266;10.410;2023-03-21T05:04:51;101230.00;;;9.88;100.00
10510;BME280;5303;53.266;10.410;2023-03-21T05:07:16;101233.75;;;9.87;100.00
10510;BME280;5303;53.266;10.410;2023-03-21T05:09:41;101232.06;;;9.86;100.00
10510;BME280;5303;53.266;10.410;2023-03-21T05:12:07;101225.75;;;9.85;100.00
10510;BME280;5303;53.266;10.410;2023-03-21T05:14:32;101231.50;;;9.82;100.00
10510;BME280;5303;53.266;10.410;2023-03-21T05:16:58;101224.25;;;9.91;100.00
10510;BME280;5303;53.266;10.410;2023-03-21T05:19:27;101225.97;;;9.92;100.00
10510;BME280;5303;53.266;10.410;2023-03-21T05:22:06;101228.53;;;9.93;100.00
10510;BME280;5303;53.266;10.410;2023-03-21T05:24:32;101226.84;;;9.92;100.00
10510;BME280;5303;53.266;10.410;2023-03-21T05:26:59;101219.53;;;9.93;100.00
10510;BME280;5303;53.266;10.410;2023-03-21T05:29:31;101223.09;;;9.93;100.00
10510;BME280;5303;53.266;10.410;2023-03-21T05:31:58;101218.28;;;9.87;100.00
10510;BME280;5303;53.266;10.410;2023-03-21T05:34:24;101217.78;;;9.92;100.00
10510;BME280;5303;53.266;10.410;2023-03-21T05:36:51;101216.41;;;9.88;100.00
10510;BME280;5303;53.266;10.410;2023-03-21T05:39:17;101214.06;;;9.93;100.00
10510;BME280;5303;53.266;10.410;2023-03-21T05:41:42;101214.75;;;9.95;100.00
10510;BME280;5303;53.266;10.410;2023-03-21T05:44:08;101218.50;;;9.94;100.00
10510;BME280;5303;53.266;10.410;2023-03-21T05:46:33;101215.63;;;9.95;100.00
10510;BME280;5303;53.266;10.410;2023-03-21T05:48:58;101223.63;;;9.97;100.00
10510;BME280;5303;53.266;10.410;2023-03-21T05:51:24;101218.81;;;9.91;100.00
10510;BME280;5303;53.266;10.410;2023-03-21T05:53:49;101215.06;;;9.92;100.00
10510;BME280;5303;53.266;10.410;2023-03-21T05:56:16;101213.38;;;9.91;100.00
10510;BME280;5303;53.266;10.410;2023-03-21T05:58:41;101214.44;;;9.98;100.00
10510;BME280;5303;53.266;10.410;2023-03-21T06:01:06;101220.06;;;9.96;100.00
10510;BME280;5303;53.266;10.410;2023-03-21T06:03:31;101216.84;;;10.01;100.00
10510;BME280;5303;53.266;10.410;2023-03-21T06:05:57;101217.53;;;10.03;100.00
10510;BME280;5303;53.266;10.410;2023-03-21T06:08:22;101222.28;;;10.01;100.00
10510;BME280;5303;53.266;10.410;2023-03-21T06:10:47;101214.66;;;10.04;100.00
10510;BME280;5303;53.266;10.410;2023-03-21T06:13:13;101216.00;;;10.00;100.00
10510;BME280;5303;53.266;10.410;2023-03-21T06:15:38;101228.56;;;10.01;100.00
10510;BME280;5303;53.266;10.410;2023-03-21T06:18:04;101215.34;;;10.07;100.00
10510;BME280;5303;53.266;10.410;2023-03-21T06:20:29;101220.22;;;10.21;100.00
10510;BME280;5303;53.266;10.410;2023-03-21T06:22:54;101220.38;;;10.19;100.00
10510;BME280;5303;53.266;10.410;2023-03-21T06:25:20;101222.78;;;10.22;100.00
10510;BME280;5303;53.266;10.410;2023-03-21T06:27:46;101211.88;;;10.22;100.00
10510;BME280;5303;53.266;10.410;2023-03-21T06:30:11;101215.09;;;10.18;100.00
10510;BME280;5303;53.266;10.410;2023-03-21T06:32:37;101215.63;;;10.21;100.00
10510;BME280;5303;53.266;10.410;2023-03-21T06:35:02;101216.00;;;10.26;100.00
10510;BME280;5303;53.266;10.410;2023-03-21T06:37:28;101206.25;;;10.24;100.00
10510;BME280;5303;53.266;10.410;2023-03-21T06:39:53;101211.66;;;10.16;100.00
10510;BME280;5303;53.266;10.410;2023-03-21T06:42:19;101220.59;;;10.26;100.00
10510;BME280;5303;53.266;10.410;2023-03-21T06:44:44;101216.31;;;10.23;100.00
10510;BME280;5303;53.266;10.410;2023-03-21T06:47:10;101221.22;;;10.20;100.00
10510;BME280;5303;53.266;10.410;2023-03-21T06:49:35;101215.31;;;10.24;100.00
10510;BME280;5303;53.266;10.410;2023-03-21T06:52:00;101214.53;;;10.32;100.00
10510;BME280;5303;53.266;10.410;2023-03-21T06:54:26;101215.38;;;10.33;100.00
10510;BME280;5303;53.266;10.410;2023-03-21T06:56:51;101210.31;;;10.38;100.00
10510;BME280;5303;53.266;10.410;2023-03-21T06:59:18;101206.56;;;10.39;100.00
10510;BME280;5303;53.266;10.410;2023-03-21T07:01:43;101212.53;;;10.42;100.00
10510;BME280;5303;53.266;10.410;2023-03-21T07:04:08;101213.03;;;10.46;100.00
10510;BME280;5303;53.266;10.410;2023-03-21T07:06:34;101207.06;;;10.42;100.00
10510;BME280;5303;53.266;10.410;2023-03-21T07:09:00;101207.91;;;10.43;100.00
10510;BME280;5303;53.266;10.410;2023-03-21T07:11:26;101203.50;;;10.42;100.00
10510;BME280;5303;53.266;10.410;2023-03-21T07:13:51;101206.56;;;10.39;100.00
10510;BME280;5303;53.266;10.410;2023-03-21T07:16:18;101205.78;;;10.55;100.00
10510;BME280;5303;53.266;10.410;2023-03-21T07:18:43;101202.91;;;10.56;100.00
10510;BME280;5303;53.266;10.410;2023-03-21T07:21:09;101203.44;;;10.60;100.00
10510;BME280;5303;53.266;10.410;2023-03-21T07:23:35;101210.94;;;10.66;100.00
10510;BME280;5303;53.266;10.410;2023-03-21T07:26:00;101209.75;;;10.68;100.00
10510;BME280;5303;53.266;10.410;2023-03-21T07:28:26;101212.50;;;10.77;100.00
10510;BME280;5303;53.266;10.410;2023-03-21T07:30:54;101214.19;;;10.69;100.00
10510;BME280;5303;53.266;10.410;2023-03-21T07:33:20;101208.94;;;10.76;100.00
10510;BME280;5303;53.266;10.410;2023-03-21T07:35:48;101218.16;;;10.83;100.00
10510;BME280;5303;53.266;10.410;2023-03-21T07:38:14;101213.22;;;10.79;100.00
10510;BME280;5303;53.266;10.410;2023-03-21T07:40:41;101211.00;;;10.82;100.00
10510;BME280;5303;53.266;10.410;2023-03-21T07:43:06;101203.34;;;10.86;100.00
10510;BME280;5303;53.266;10.410;2023-03-21T07:45:31;101203.69;;;10.91;100.00
10510;BME280;5303;53.266;10.410;2023-03-21T07:47:56;101209.66;;;10.86;100.00
10510;BME280;5303;53.266;10.410;2023-03-21T07:50:22;101207.63;;;10.96;100.00
10510;BME280;5303;53.266;10.410;2023-03-21T07:52:47;101208.00;;;11.02;100.00
10510;BME280;5303;53.266;10.410;2023-03-21T07:55:12;101210.53;;;11.03;100.00
10510;BME280;5303;53.266;10.410;2023-03-21T07:57:38;101210.22;;;11.14;100.00
10510;BME280;5303;53.266;10.410;2023-03-21T08:00:04;101211.56;;;11.10;100.00
10510;BME280;5303;53.266;10.410;2023-03-21T08:02:31;101213.81;;;11.15;100.00
10510;BME280;5303;53.266;10.410;2023-03-21T08:04:56;101208.34;;;11.15;100.00
10510;BME280;5303;53.266;10.410;2023-03-21T08:07:21;101205.59;;;10.99;100.00
10510;BME280;5303;53.266;10.410;2023-03-21T08:09:46;101206.13;;;11.10;100.00
10510;BME280;5303;53.266;10.410;2023-03-21T08:12:12;101197.59;;;11.13;100.00
10510;BME280;5303;53.266;10.410;2023-03-21T08:14:37;101199.66;;;11.19;100.00
10510;BME280;5303;53.266;10.410;2023-03-21T08:17:04;101198.66;;;11.21;100.00
10510;BME280;5303;53.266;10.410;2023-03-21T08:19:30;101195.06;;;11.20;100.00
10510;BME280;5303;53.266;10.410;2023-03-21T08:21:55;101193.19;;;11.21;100.00
10510;BME280;5303;53.266;10.410;2023-03-21T08:24:26;101195.38;;;11.17;100.00
10510;BME280;5303;53.266;10.410;2023-03-21T08:26:51;101193.19;;;11.29;100.00
10510;BME280;5303;53.266;10.410;2023-03-21T08:29:16;101196.09;;;11.35;100.00
10510;BME280;5303;53.266;10.410;2023-03-21T08:31:41;101189.66;;;11.36;100.00
10510;BME280;5303;53.266;10.410;2023-03-21T08:34:07;101197.28;;;11.33;100.00
10510;BME280;5303;53.266;10.410;2023-03-21T08:36:34;101182.13;;;11.38;100.00
10510;BME280;5303;53.266;10.410;2023-03-21T08:39:01;101184.03;;;11.46;100.00
10510;BME280;5303;53.266;10.410;2023-03-21T08:41:33;101182.13;;;11.55;100.00
10510;BME280;5303;53.266;10.410;2023-03-21T08:43:59;101189.31;;;11.56;100.00
10510;BME280;5303;53.266;10.410;2023-03-21T08:46:25;101181.28;;;11.46;100.00
10510;BME280;5303;53.266;10.410;2023-03-21T08:48:50;101185.38;;;11.50;100.00
10510;BME280;5303;53.266;10.410;2023-03-21T08:51:16;101190.66;;;11.52;100.00
10510;BME280;5303;53.266;10.410;2023-03-21T08:53:41;101189.81;;;11.59;100.00
10510;BME280;5303;53.266;10.410;2023-03-21T08:56:08;101191.31;;;11.62;100.00
10510;BME280;5303;53.266;10.410;2023-03-21T08:58:33;101188.44;;;11.63;100.00
10510;BME280;5303;53.266;10.410;2023-03-21T09:00:59;101189.63;;;11.69;100.00
10510;BME280;5303;53.266;10.410;2023-03-21T09:03:24;101195.09;;;11.69;100.00
10510;BME280;5303;53.266;10.410;2023-03-21T09:05:52;101195.09;;;11.69;100.00
10510;BME280;5303;53.266;10.410;2023-03-21T09:08:18;101190.66;;;11.76;100.00
10510;BME280;5303;53.266;10.410;2023-03-21T09:10:47;101180.59;;;11.77;100.00
10510;BME280;5303;53.266;10.410;2023-03-21T09:13:12;101187.56;;;11.71;100.00
10510;BME280;5303;53.266;10.410;2023-03-21T09:15:37;101189.28;;;11.64;100.00
10510;BME280;5303;53.266;10.410;2023-03-21T09:18:04;101195.59;;;11.73;100.00
10510;BME280;5303;53.266;10.410;2023-03-21T09:20:37;101191.00;;;11.81;100.00
10510;BME280;5303;53.266;10.410;2023-03-21T09:23:02;101191.00;;;11.81;100.00
10510;BME280;5303;53.266;10.410;2023-03-21T09:25:28;101186.72;;;11.79;100.00
10510;BME280;5303;53.266;10.410;2023-03-21T09:27:55;101186.38;;;11.74;100.00
10510;BME280;5303;53.266;10.410;2023-03-21T09:30:21;101188.63;;;11.86;100.00
10510;BME280;5303;53.266;10.410;2023-03-21T09:32:47;101188.13;;;11.91;100.00
10510;BME280;5303;53.266;10.410;2023-03-21T09:35:13;101181.78;;;11.91;100.00
10510;BME280;5303;53.266;10.410;2023-03-21T09:37:40;101177.19;;;11.91;100.00
10510;BME280;5303;53.266;10.410;2023-03-21T09:40:14;101179.25;;;11.89;100.00
10510;BME280;5303;53.266;10.410;2023-03-21T09:42:57;101169.66;;;11.93;100.00
10510;BME280;5303;53.266;10.410;2023-03-21T09:45:39;101175.13;;;12.01;100.00
10510;BME280;5303;53.266;10.410;2023-03-21T09:48:15;101168.41;;;12.20;100.00
10510;BME280;5303;53.266;10.410;2023-03-21T09:50:44;101166.84;;;12.26;100.00
10510;BME280;5303;53.266;10.410;2023-03-21T09:53:21;101167.31;;;12.38;100.00
10510;BME280;5303;53.266;10.410;2023-03-21T09:55:48;101169.38;;;12.35;100.00
10510;BME280;5303;53.266;10.410;2023-03-21T09:58:25;101165.28;;;12.40;100.00
10510;BME280;5303;53.266;10.410;2023-03-21T10:01:00;101166.22;;;12.55;100.00
10510;BME280;5303;53.266;10.410;2023-03-21T10:03:34;101156.47;;;12.61;100.00
10510;BME280;5303;53.266;10.410;2023-03-21T10:06:03;101153.16;;;12.73;100.00
10510;BME280;5303;53.266;10.410;2023-03-21T10:08:38;101157.88;;;12.88;100.00
10510;BME280;5303;53.266;10.410;2023-03-21T10:11:14;101152.66;;;13.01;100.00
10510;BME280;5303;53.266;10.410;2023-03-21T10:13:47;101146.09;;;13.10;100.00
10510;BME280;5303;53.266;10.410;2023-03-21T10:16:16;101156.84;;;13.12;100.00
10510;BME280;5303;53.266;10.410;2023-03-21T10:18:44;101153.59;;;13.16;100.00
10510;BME280;5303;53.266;10.410;2023-03-21T10:21:33;101152.94;;;13.06;100.00
10510;BME280;5303;53.266;10.410;2023-03-21T10:23:58;101148.28;;;13.15;100.00
10510;BME280;5303;53.266;10.410;2023-03-21T10:26:26;101153.06;;;12.90;100.00
10510;BME280;5303;53.266;10.410;2023-03-21T10:28:54;101154.31;;;12.79;100.00
10510;BME280;5303;53.266;10.410;2023-03-21T10:31:23;101146.63;;;12.82;100.00
10510;BME280;5303;53.266;10.410;2023-03-21T10:33:51;101143.28;;;12.95;100.00
10510;BME280;5303;53.266;10.410;2023-03-21T10:36:23;101145.91;;;12.89;100.00
10510;BME280;5303;53.266;10.410;2023-03-21T10:38:53;101147.94;;;12.87;100.00
10510;BME280;5303;53.266;10.410;2023-03-21T10:41:19;101149.47;;;12.89;100.00
10510;BME280;5303;53.266;10.410;2023-03-21T10:43:45;101146.81;;;12.81;100.00
10510;BME280;5303;53.266;10.410;2023-03-21T10:46:17;101147.09;;;12.86;100.00
10510;BME280;5303;53.266;10.410;2023-03-21T10:48:50;101138.31;;;12.68;100.00
10510;BME280;5303;53.266;10.410;2023-03-21T10:51:27;101139.00;;;12.70;100.00
10510;BME280;5303;53.266;10.410;2023-03-21T10:54:04;101141.94;;;12.60;100.00
10510;BME280;5303;53.266;10.410;2023-03-21T10:56:35;101133.88;;;12.67;100.00
10510;BME280;5303;53.266;10.410;2023-03-21T10:59:02;101140.41;;;12.66;100.00
10510;BME280;5303;53.266;10.410;2023-03-21T11:01:40;101134.59;;;12.61;100.00
10510;BME280;5303;53.266;10.410;2023-03-21T11:04:12;101129.63;;;12.64;100.00
10510;BME280;5303;53.266;10.410;2023-03-21T11:06:40;101126.53;;;12.67;100.00
10510;BME280;5303;53.266;10.410;2023-03-21T11:09:13;101125.41;;;12.62;100.00
10510;BME280;5303;53.266;10.410;2023-03-21T11:11:48;101129.00;;;12.54;100.00
10510;BME280;5303;53.266;10.410;2023-03-21T11:14:34;101125.75;;;12.58;100.00
10510;BME280;5303;53.266;10.410;2023-03-21T11:17:00;101123.19;;;12.57;100.00
10510;BME280;5303;53.266;10.410;2023-03-21T11:19:32;101118.66;;;12.72;100.00
10510;BME280;5303;53.266;10.410;2023-03-21T11:21:58;101124.66;;;12.68;100.00
10510;BME280;5303;53.266;10.410;2023-03-21T11:24:28;101121.25;;;12.66;100.00
10510;BME280;5303;53.266;10.410;2023-03-21T11:26:55;101125.41;;;12.62;100.00
10510;BME280;5303;53.266;10.410;2023-03-21T11:29:38;101121.63;;;12.63;100.00
10510;BME280;5303;53.266;10.410;2023-03-21T11:32:09;101121.50;;;12.56;100.00
10510;BME280;5303;53.266;10.410;2023-03-21T11:35:21;101117.22;;;12.53;100.00
10510;BME280;5303;53.266;10.410;2023-03-21T11:37:54;101108.09;;;12.69;100.00
10510;BME280;5303;53.266;10.410;2023-03-21T11:45:37;101114.66;;;12.83;100.00
10510;BME280;5303;53.266;10.410;2023-03-21T11:48:19;101109.38;;;12.81;100.00
10510;BME280;5303;53.266;10.410;2023-03-21T11:50:46;101099.16;;;12.75;100.00
10510;BME280;5303;53.266;10.410;2023-03-21T11:58:36;101097.50;;;12.66;100.00
10510;BME280;5303;53.266;10.410;2023-03-21T12:03:54;101089.81;;;12.70;100.00
10510;BME280;5303;53.266;10.410;2023-03-21T12:09:30;101086.66;;;12.81;100.00
10510;BME280;5303;53.266;10.410;2023-03-21T12:12:20;101082.56;;;12.77;100.00
10510;BME280;5303;53.266;10.410;2023-03-21T12:15:30;101082.41;;;12.78;100.00
10510;BME280;5303;53.266;10.410;2023-03-21T12:18:14;101084.66;;;12.75;100.00
10510;BME280;5303;53.266;10.410;2023-03-21T12:24:01;101075.22;;;12.77;100.00
10510;BME280;5303;53.266;10.410;2023-03-21T12:29:16;101076.50;;;12.67;100.00
10510;BME280;5303;53.266;10.410;2023-03-21T12:31:53;101065.56;;;12.67;100.00
10510;BME280;5303;53.266;10.410;2023-03-21T12:34:27;101064.72;;;12.66;100.00
10510;BME280;5303;53.266;10.410;2023-03-21T12:37:07;101057.69;;;12.72;100.00
10510;BME280;5303;53.266;10.410;2023-03-21T12:39:39;101067.94;;;12.70;100.00
10510;BME280;5303;53.266;10.410;2023-03-21T12:42:57;101055.56;;;12.82;100.00
10510;BME280;5303;53.266;10.410;2023-03-21T12:45:20;101059.13;;;12.82;100.00
10510;BME280;5303;53.266;10.410;2023-03-21T12:47:52;101051.41;;;12.86;100.00
10510;BME280;5303;53.266;10.410;2023-03-21T12:50:22;101048.56;;;12.79;100.00
10510;BME280;5303;53.266;10.410;2023-03-21T12:52:53;101049.41;;;12.80;100.00
10510;BME280;5303;53.266;10.410;2023-03-21T12:55:33;101043.66;;;12.75;100.00
10510;BME280;5303;53.266;10.410;2023-03-21T13:02:56;101033.44;;;12.69;100.00
10510;BME280;5303;53.266;10.410;2023-03-21T13:05:29;101028.22;;;12.82;100.00
10510;BME280;5303;53.266;10.410;2023-03-21T13:08:23;101026.16;;;12.84;100.00
10510;BME280;5303;53.266;10.410;2023-03-21T13:10:49;101023.13;;;12.79;100.00
10510;BME280;5303;53.266;10.410;2023-03-21T13:16:40;101011.38;;;12.93;100.00
10510;BME280;5303;53.266;10.410;2023-03-21T13:19:41;101016.94;;;13.00;100.00
10510;BME280;5303;53.266;10.410;2023-03-21T13:22:25;101009.97;;;12.97;100.00
10510;BME280;5303;53.266;10.410;2023-03-21T13:25:03;101011.38;;;12.93;100.00
10510;BME280;5303;53.266;10.410;2023-03-21T13:27:33;101011.63;;;12.83;100.00
10510;BME280;5303;53.266;10.410;2023-03-21T13:32:45;101006.34;;;12.82;100.00
10510;BME280;5303;53.266;10.410;2023-03-21T13:35:18;101001.25;;;12.79;100.00
10510;BME280;5303;53.266;10.410;2023-03-21T13:40:40;100997.94;;;12.83;100.00
10510;BME280;5303;53.266;10.410;2023-03-21T13:54:22;100994.00;;;12.86;100.00
10510;BME280;5303;53.266;10.410;2023-03-21T13:56:56;100981.00;;;12.88;100.00
10510;BME280;5303;53.266;10.410;2023-03-21T14:04:45;100987.78;;;12.92;100.00
10510;BME280;5303;53.266;10.410;2023-03-21T14:07:14;100979.97;;;12.89;100.00
10510;BME280;5303;53.266;10.410;2023-03-21T14:09:47;100976.69;;;12.94;100.00
10510;BME280;5303;53.266;10.410;2023-03-21T14:12:15;100980.56;;;12.99;100.00